Time;durP1;ratioP1;P1;durP2;ratioP2;P2;SDS_P1;SDS_P2;PMS_P1;PMS_P2;Temp;Humidity;BMP_temperature;BMP_pressure;BME280_temperature;BME280_humidity;BME280_pressure;Samples;Min_cycle;Max_cycle;Signal;HPM_P1;HPM_P2
2022/10/30 00:01:47;;;;;;;16.93;13.63;;;;;;;;;;5014241;28;20549;-62
2022/10/30 00:04:14;;;;;;;15.60;13.43;;;;;;;;;;5014518;28;20457;-63
2022/10/30 00:06:42;;;;;;;16.10;13.70;;;;;;;;;;5014582;28;20457;-63
2022/10/30 00:09:10;;;;;;;15.77;14.03;;;;;;;;;;5014384;28;20466;-63
2022/10/30 00:11:37;;;;;;;17.47;12.67;;;;;;;;;;5014409;28;20457;-61
2022/10/30 00:14:04;;;;;;;20.70;13.93;;;;;;;;;;5014296;28;20516;-62
2022/10/30 00:16:32;;;;;;;15.73;13.87;;;;;;;;;;5014987;28;20501;-62
2022/10/30 00:18:59;;;;;;;19.37;14.50;;;;;;;;;;5014811;28;20458;-62
2022/10/30 00:21:27;;;;;;;16.80;14.30;;;;;;;;;;5014829;28;20456;-62
2022/10/30 00:23:56;;;;;;;15.80;14.20;;;;;;;;;;5014728;28;20548;-62
2022/10/30 00:26:24;;;;;;;16.03;13.97;;;;;;;;;;5014714;28;20238;-62
2022/10/30 00:28:52;;;;;;;19.60;14.02;;;;;;;;;;5014817;28;20461;-62
2022/10/30 00:31:19;;;;;;;16.83;14.47;;;;;;;;;;5014709;28;20842;-63
2022/10/30 00:33:49;;;;;;;18.60;14.57;;;;;;;;;;5014825;28;20446;-62
2022/10/30 00:36:17;;;;;;;17.40;13.63;;;;;;;;;;5014628;28;20997;-62
2022/10/30 00:38:44;;;;;;;16.97;13.70;;;;;;;;;;5014558;28;20556;-63
2022/10/30 00:41:16;;;;;;;16.57;13.93;;;;;;;;;;5014414;28;20458;-62
2022/10/30 00:43:43;;;;;;;18.70;14.70;;;;;;;;;;5014502;28;20484;-62
2022/10/30 00:46:16;;;;;;;15.70;14.17;;;;;;;;;;5014591;28;20463;-62
2022/10/30 00:48:44;;;;;;;18.93;13.97;;;;;;;;;;5014339;28;21004;-62
2022/10/30 00:51:12;;;;;;;17.43;14.07;;;;;;;;;;5014064;28;20457;-62
2022/10/30 00:53:40;;;;;;;15.63;13.50;;;;;;;;;;5014028;28;20458;-62
2022/10/30 00:56:08;;;;;;;17.50;15.23;;;;;;;;;;5014341;28;20494;-62
2022/10/30 00:58:39;;;;;;;17.20;13.37;;;;;;;;;;5014253;28;20490;-62
2022/10/30 01:01:08;;;;;;;15.90;14.03;;;;;;;;;;5014392;28;20450;-62
2022/10/30 01:03:36;;;;;;;15.60;13.38;;;;;;;;;;5013910;28;20465;-62
2022/10/30 01:06:07;;;;;;;17.50;13.57;;;;;;;;;;5014042;28;20578;-62
2022/10/30 01:08:34;;;;;;;17.20;12.67;;;;;;;;;;5014224;28;20525;-62
2022/10/30 01:11:03;;;;;;;17.03;13.53;;;;;;;;;;5014073;28;20988;-62
2022/10/30 01:13:31;;;;;;;15.97;13.10;;;;;;;;;;5013772;28;20454;-62
2022/10/30 01:16:07;;;;;;;17.03;13.73;;;;;;;;;;5013968;28;20457;-62
2022/10/30 01:18:38;;;;;;;15.67;14.13;;;;;;;;;;5013857;28;20814;-62
2022/10/30 01:21:14;;;;;;;18.03;13.17;;;;;;;;;;5013997;28;20447;-62
2022/10/30 01:23:49;;;;;;;19.35;15.40;;;;;;;;;;5014128;28;20925;-62
2022/10/30 01:26:20;;;;;;;17.50;14.20;;;;;;;;;;5014243;28;20201;-62
2022/10/30 01:28:57;;;;;;;18.57;14.07;;;;;;;;;;5013948;28;20790;-62
2022/10/30 01:31:33;;;;;;;17.27;13.90;;;;;;;;;;5013584;28;20465;-62
2022/10/30 01:34:05;;;;;;;17.57;13.47;;;;;;;;;;5013901;28;20806;-62
2022/10/30 01:36:37;;;;;;;17.50;14.47;;;;;;;;;;5013891;28;20524;-62
2022/10/30 01:39:06;;;;;;;18.33;13.60;;;;;;;;;;5013682;28;20496;-62
2022/10/30 01:41:33;;;;;;;15.77;14.17;;;;;;;;;;5013689;28;20812;-62
2022/10/30 01:44:03;;;;;;;14.10;12.80;;;;;;;;;;5013827;28;20827;-62
2022/10/30 01:46:41;;;;;;;16.00;12.77;;;;;;;;;;5013759;28;20462;-61
2022/10/30 01:49:16;;;;;;;13.70;12.30;;;;;;;;;;5013227;28;20528;-63
2022/10/30 01:51:49;;;;;;;16.80;13.70;;;;;;;;;;5012989;28;20485;-62
2022/10/30 01:54:20;;;;;;;18.77;14.07;;;;;;;;;;5012876;28;20450;-62
2022/10/30 01:56:52;;;;;;;16.40;13.77;;;;;;;;;;5013121;28;20516;-62
2022/10/30 01:59:22;;;;;;;18.07;12.30;;;;;;;;;;5012788;28;20516;-62
2022/10/30 02:01:50;;;;;;;14.98;13.30;;;;;;;;;;5012838;28;20462;-62
2022/10/30 02:04:18;;;;;;;16.40;12.83;;;;;;;;;;5012845;28;20230;-63
2022/10/30 02:06:45;;;;;;;15.03;13.37;;;;;;;;;;5012779;28;20513;-62
2022/10/30 02:09:15;;;;;;;14.63;13.23;;;;;;;;;;5012992;28;20462;-62
2022/10/30 02:11:42;;;;;;;15.50;13.20;;;;;;;;;;5012822;28;20454;-62
2022/10/30 02:14:10;;;;;;;13.47;12.00;;;;;;;;;;5012739;28;20545;-62
2022/10/30 02:16:39;;;;;;;17.30;12.73;;;;;;;;;;5012677;28;20490;-62
2022/10/30 02:19:07;;;;;;;19.30;13.00;;;;;;;;;;5012580;28;20857;-62
2022/10/30 02:21:36;;;;;;;20.07;12.37;;;;;;;;;;5012765;28;20508;-62
2022/10/30 02:24:03;;;;;;;13.60;11.75;;;;;;;;;;5012771;28;20450;-62
2022/10/30 02:26:30;;;;;;;19.20;13.05;;;;;;;;;;5014920;28;20191;-62
2022/10/30 02:28:57;;;;;;;15.90;13.23;;;;;;;;;;5016323;28;20665;-62
2022/10/30 02:31:24;;;;;;;15.43;12.70;;;;;;;;;;5016006;28;20528;-62
2022/10/30 02:33:51;;;;;;;20.10;12.13;;;;;;;;;;5016790;28;20465;-62
2022/10/30 02:36:18;;;;;;;18.07;13.20;;;;;;;;;;5016306;28;20454;-62
2022/10/30 02:38:46;;;;;;;16.23;12.73;;;;;;;;;;5015985;28;20504;-62
2022/10/30 02:41:13;;;;;;;16.13;13.60;;;;;;;;;;5016011;28;20461;-62
2022/10/30 02:43:40;;;;;;;14.40;12.40;;;;;;;;;;5015764;28;20710;-62
2022/10/30 02:46:08;;;;;;;17.67;13.87;;;;;;;;;;5015978;28;20462;-62
2022/10/30 02:48:35;;;;;;;16.57;12.67;;;;;;;;;;5015891;28;20458;-62
2022/10/30 02:51:02;;;;;;;14.33;12.40;;;;;;;;;;5016138;28;20491;-62
2022/10/30 02:53:29;;;;;;;13.23;11.83;;;;;;;;;;5015957;28;20489;-62
2022/10/30 02:55:57;;;;;;;17.93;13.07;;;;;;;;;;5015825;28;20452;-64
2022/10/30 02:58:24;;;;;;;18.30;12.53;;;;;;;;;;5015803;28;20446;-61
2022/10/30 03:00:51;;;;;;;18.52;12.52;;;;;;;;;;5015603;28;20450;-61
2022/10/30 03:03:18;;;;;;;16.43;12.50;;;;;;;;;;5015605;28;20226;-60
2022/10/30 03:05:45;;;;;;;16.23;12.30;;;;;;;;;;5015732;28;20862;-61
2022/10/30 03:08:12;;;;;;;17.05;12.18;;;;;;;;;;5015480;28;20619;-60
2022/10/30 03:10:39;;;;;;;16.90;13.33;;;;;;;;;;5015533;28;20230;-61
2022/10/30 03:13:08;;;;;;;14.40;11.63;;;;;;;;;;5015376;28;20493;-60
2022/10/30 03:15:35;;;;;;;13.40;11.63;;;;;;;;;;5015372;28;20461;-59
2022/10/30 03:18:02;;;;;;;24.90;14.30;;;;;;;;;;5015534;28;20450;-60
2022/10/30 03:20:29;;;;;;;12.57;11.20;;;;;;;;;;5015440;28;20462;-60
2022/10/30 03:22:56;;;;;;;17.93;13.17;;;;;;;;;;5015343;28;20488;-60
2022/10/30 03:25:23;;;;;;;17.00;13.48;;;;;;;;;;5015368;28;20450;-62
2022/10/30 03:27:50;;;;;;;12.77;11.63;;;;;;;;;;5015107;28;20187;-61
2022/10/30 03:30:18;;;;;;;17.90;11.38;;;;;;;;;;5015265;28;20536;-60
2022/10/30 03:32:46;;;;;;;15.20;12.20;;;;;;;;;;5015932;28;20278;-60
2022/10/30 03:35:13;;;;;;;17.20;12.60;;;;;;;;;;5015801;28;20446;-60
2022/10/30 03:37:41;;;;;;;15.67;12.90;;;;;;;;;;5014482;28;20454;-61
2022/10/30 03:40:08;;;;;;;15.20;13.70;;;;;;;;;;5015699;28;20453;-60
2022/10/30 03:42:40;;;;;;;12.90;11.60;;;;;;;;;;5015346;28;20485;-60
2022/10/30 03:45:08;;;;;;;18.77;12.90;;;;;;;;;;5015520;28;20514;-60
2022/10/30 03:47:40;;;;;;;13.50;12.07;;;;;;;;;;5015823;28;20490;-60
2022/10/30 03:50:07;;;;;;;13.13;11.70;;;;;;;;;;5015407;28;20480;-60
2022/10/30 03:52:34;;;;;;;14.87;13.20;;;;;;;;;;5015283;28;20463;-60
2022/10/30 03:55:01;;;;;;;15.43;13.00;;;;;;;;;;5015132;28;20450;-60
2022/10/30 03:57:29;;;;;;;16.50;12.73;;;;;;;;;;5015271;28;20508;-60
2022/10/30 03:59:56;;;;;;;16.40;13.90;;;;;;;;;;5015241;28;20458;-60
2022/10/30 04:02:23;;;;;;;19.00;14.10;;;;;;;;;;5015288;28;20849;-60
2022/10/30 04:04:52;;;;;;;15.10;13.20;;;;;;;;;;5015399;28;20454;-60
2022/10/30 04:07:20;;;;;;;14.27;12.87;;;;;;;;;;5014924;28;20818;-60
2022/10/30 04:09:47;;;;;;;19.45;14.10;;;;;;;;;;5015037;28;20465;-60
2022/10/30 04:12:14;;;;;;;19.23;12.60;;;;;;;;;;5014987;28;20300;-60
2022/10/30 04:14:42;;;;;;;16.75;13.43;;;;;;;;;;5014918;28;20545;-60
2022/10/30 04:17:09;;;;;;;20.60;14.10;;;;;;;;;;5014748;28;20635;-60
2022/10/30 04:19:36;;;;;;;19.13;14.30;;;;;;;;;;5014812;28;20450;-60
2022/10/30 04:22:05;;;;;;;15.03;13.33;;;;;;;;;;5014523;28;20541;-60
2022/10/30 04:24:32;;;;;;;21.63;14.27;;;;;;;;;;5014888;28;20502;-60
2022/10/30 04:27:00;;;;;;;16.53;13.20;;;;;;;;;;5014581;28;20967;-60
2022/10/30 04:29:27;;;;;;;18.13;14.90;;;;;;;;;;5014183;28;20505;-60
2022/10/30 04:31:54;;;;;;;21.88;14.50;;;;;;;;;;5013978;28;21016;-60
2022/10/30 04:34:21;;;;;;;18.27;13.05;;;;;;;;;;5013861;28;20321;-60
2022/10/30 04:36:48;;;;;;;19.80;14.33;;;;;;;;;;5014097;28;20638;-61
2022/10/30 04:39:16;;;;;;;17.63;14.57;;;;;;;;;;5013809;28;21007;-61
2022/10/30 04:41:43;;;;;;;17.60;13.40;;;;;;;;;;5013740;28;20514;-60
2022/10/30 04:44:10;;;;;;;15.93;13.77;;;;;;;;;;5013262;28;20502;-61
2022/10/30 04:46:37;;;;;;;17.67;13.07;;;;;;;;;;5012898;28;20446;-60
2022/10/30 04:49:04;;;;;;;14.25;12.48;;;;;;;;;;5012410;28;20477;-61
2022/10/30 04:51:31;;;;;;;18.53;13.30;;;;;;;;;;5012985;28;20219;-61
2022/10/30 04:53:58;;;;;;;16.00;13.57;;;;;;;;;;5012766;28;21007;-61
2022/10/30 04:56:26;;;;;;;16.70;13.63;;;;;;;;;;5012881;28;20791;-61
2022/10/30 04:58:53;;;;;;;14.93;13.20;;;;;;;;;;5012871;28;20456;-60
2022/10/30 05:01:20;;;;;;;24.53;14.40;;;;;;;;;;5012764;28;20458;-60
2022/10/30 05:03:48;;;;;;;14.93;13.00;;;;;;;;;;5013102;28;20453;-60
2022/10/30 05:06:20;;;;;;;23.83;14.17;;;;;;;;;;5013381;28;20480;-60
2022/10/30 05:08:47;;;;;;;17.77;14.07;;;;;;;;;;5013135;28;20552;-60
2022/10/30 05:11:14;;;;;;;14.98;12.07;;;;;;;;;;5012711;28;20565;-60
2022/10/30 05:13:43;;;;;;;18.47;13.43;;;;;;;;;;5012805;28;20198;-60
2022/10/30 05:16:10;;;;;;;16.87;14.33;;;;;;;;;;5012456;28;20888;-60
2022/10/30 05:18:37;;;;;;;18.97;14.57;;;;;;;;;;5012648;28;20460;-60
2022/10/30 05:21:04;;;;;;;18.50;13.60;;;;;;;;;;5012737;28;20454;-60
2022/10/30 05:23:31;;;;;;;18.10;13.37;;;;;;;;;;5013018;28;20854;-61
2022/10/30 05:26:00;;;;;;;17.80;14.93;;;;;;;;;;5012874;28;20450;-60
2022/10/30 05:28:28;;;;;;;20.80;15.23;;;;;;;;;;5013155;28;20522;-60
2022/10/30 05:30:56;;;;;;;15.73;13.83;;;;;;;;;;5012900;28;20568;-61
2022/10/30 05:33:24;;;;;;;21.47;15.60;;;;;;;;;;5013035;28;20456;-61
2022/10/30 05:35:51;;;;;;;16.43;14.57;;;;;;;;;;5012758;28;20454;-61
2022/10/30 05:38:18;;;;;;;15.00;12.83;;;;;;;;;;5012967;28;20937;-60
2022/10/30 05:40:46;;;;;;;17.17;14.57;;;;;;;;;;5012532;28;20466;-60
2022/10/30 05:43:14;;;;;;;16.70;14.30;;;;;;;;;;4973158;28;1132305;-61
2022/10/30 05:45:41;;;;;;;20.60;15.40;;;;;;;;;;5013435;28;20934;-60
2022/10/30 05:48:10;;;;;;;21.30;15.70;;;;;;;;;;5013225;28;20454;-61
2022/10/30 05:50:37;;;;;;;18.80;13.37;;;;;;;;;;5013301;28;20489;-61
2022/10/30 05:53:05;;;;;;;15.93;14.23;;;;;;;;;;5013313;28;20933;-61
2022/10/30 05:55:32;;;;;;;23.03;14.10;;;;;;;;;;5012867;28;20460;-61
2022/10/30 05:58:00;;;;;;;19.30;14.80;;;;;;;;;;5012820;28;20505;-60
2022/10/30 06:00:27;;;;;;;16.52;13.80;;;;;;;;;;5013659;28;20965;-61
2022/10/30 06:02:59;;;;;;;15.97;13.37;;;;;;;;;;5016955;28;20222;-61
2022/10/30 06:05:27;;;;;;;15.57;12.97;;;;;;;;;;5016668;28;20457;-61
2022/10/30 06:07:55;;;;;;;16.60;13.17;;;;;;;;;;5016708;28;20450;-61
2022/10/30 06:10:22;;;;;;;14.83;12.83;;;;;;;;;;5016778;28;20535;-60
2022/10/30 06:12:52;;;;;;;18.73;12.83;;;;;;;;;;5016726;28;20814;-61
2022/10/30 06:15:19;;;;;;;22.67;14.40;;;;;;;;;;5016950;28;20492;-61
2022/10/30 06:17:46;;;;;;;24.43;14.73;;;;;;;;;;5016578;28;20446;-60
2022/10/30 06:20:13;;;;;;;22.80;16.97;;;;;;;;;;5016450;28;20450;-60
2022/10/30 06:22:42;;;;;;;19.43;15.50;;;;;;;;;;5016785;28;20446;-61
2022/10/30 06:25:09;;;;;;;21.77;16.43;;;;;;;;;;5016278;28;20454;-61
2022/10/30 06:27:36;;;;;;;22.93;16.10;;;;;;;;;;5016442;28;20508;-61
2022/10/30 06:30:04;;;;;;;22.67;17.70;;;;;;;;;;5016403;28;20549;-60
2022/10/30 06:32:31;;;;;;;22.40;16.40;;;;;;;;;;5016494;28;20536;-60
2022/10/30 06:34:58;;;;;;;20.60;14.43;;;;;;;;;;5016176;28;20458;-61
2022/10/30 06:37:25;;;;;;;17.40;15.60;;;;;;;;;;5015984;28;20450;-61
2022/10/30 06:39:53;;;;;;;18.40;16.47;;;;;;;;;;5016237;28;20456;-61
2022/10/30 06:42:20;;;;;;;23.30;16.07;;;;;;;;;;5015983;28;20454;-61
2022/10/30 06:44:48;;;;;;;20.30;14.80;;;;;;;;;;5015807;28;20846;-61
2022/10/30 06:47:15;;;;;;;19.70;14.65;;;;;;;;;;5015995;28;20450;-61
2022/10/30 06:49:42;;;;;;;20.40;14.00;;;;;;;;;;5015932;28;20223;-61
2022/10/30 06:52:09;;;;;;;16.73;13.00;;;;;;;;;;5015987;28;20540;-61
2022/10/30 06:54:36;;;;;;;18.50;15.40;;;;;;;;;;5016002;28;20450;-61
2022/10/30 06:57:05;;;;;;;17.50;14.50;;;;;;;;;;5015756;28;21077;-61
2022/10/30 06:59:32;;;;;;;17.13;15.00;;;;;;;;;;5015841;28;20460;-61
2022/10/30 07:01:59;;;;;;;16.30;14.60;;;;;;;;;;5015725;28;20512;-61
2022/10/30 07:04:26;;;;;;;22.83;14.67;;;;;;;;;;5015612;28;20458;-61
2022/10/30 07:06:53;;;;;;;17.90;15.63;;;;;;;;;;5015546;28;20957;-62
2022/10/30 07:09:20;;;;;;;18.90;16.40;;;;;;;;;;5015585;28;20455;-62
2022/10/30 07:11:47;;;;;;;23.30;16.50;;;;;;;;;;5015298;28;20512;-62
2022/10/30 07:14:15;;;;;;;17.00;14.30;;;;;;;;;;5015511;28;20929;-62
2022/10/30 07:16:42;;;;;;;23.52;16.00;;;;;;;;;;5015473;28;20795;-63
2022/10/30 07:19:09;;;;;;;18.67;15.33;;;;;;;;;;5015404;28;20203;-62
2022/10/30 07:21:36;;;;;;;17.77;15.23;;;;;;;;;;5015484;28;20524;-62
2022/10/30 07:24:04;;;;;;;19.47;15.33;;;;;;;;;;5015476;28;20810;-62
2022/10/30 07:26:32;;;;;;;17.67;14.67;;;;;;;;;;5015261;28;20937;-63
2022/10/30 07:28:59;;;;;;;17.63;14.77;;;;;;;;;;5015304;28;20446;-62
2022/10/30 07:31:27;;;;;;;17.73;14.10;;;;;;;;;;5014994;28;20744;-62
2022/10/30 07:33:54;;;;;;;19.73;14.13;;;;;;;;;;5015356;28;20454;-62
2022/10/30 07:36:21;;;;;;;15.67;12.30;;;;;;;;;;5015253;28;20501;-62
2022/10/30 07:38:48;;;;;;;15.43;13.17;;;;;;;;;;5015006;28;20449;-63
2022/10/30 07:41:16;;;;;;;15.20;11.93;;;;;;;;;;5014960;28;20454;-63
2022/10/30 07:43:43;;;;;;;17.53;13.40;;;;;;;;;;5014913;28;20474;-62
2022/10/30 07:46:10;;;;;;;14.60;12.50;;;;;;;;;;5014854;28;20484;-62
2022/10/30 07:48:38;;;;;;;16.77;13.07;;;;;;;;;;5015051;28;20450;-63
2022/10/30 07:51:05;;;;;;;15.63;13.43;;;;;;;;;;5015084;28;20791;-61
2022/10/30 07:53:32;;;;;;;16.00;13.20;;;;;;;;;;5014880;28;20454;-62
2022/10/30 07:55:59;;;;;;;14.70;13.13;;;;;;;;;;5014626;28;20485;-62
2022/10/30 07:58:26;;;;;;;16.80;12.70;;;;;;;;;;5014586;28;20482;-62
2022/10/30 08:00:53;;;;;;;21.80;13.25;;;;;;;;;;5014818;28;20453;-61
2022/10/30 08:03:20;;;;;;;20.10;15.70;;;;;;;;;;5014701;28;20254;-63
2022/10/30 08:05:48;;;;;;;17.20;13.70;;;;;;;;;;5014894;28;20546;-62
2022/10/30 08:08:15;;;;;;;17.77;14.30;;;;;;;;;;5014506;28;20458;-63
2022/10/30 08:10:42;;;;;;;18.43;14.03;;;;;;;;;;5014567;28;20545;-62
2022/10/30 08:13:09;;;;;;;22.40;17.17;;;;;;;;;;5014130;28;20512;-63
2022/10/30 08:15:38;;;;;;;16.70;13.37;;;;;;;;;;5014478;28;20195;-63
2022/10/30 08:18:05;;;;;;;15.00;13.50;;;;;;;;;;5014406;28;20450;-61
2022/10/30 08:20:32;;;;;;;17.77;13.23;;;;;;;;;;5014317;28;20485;-63
2022/10/30 08:23:00;;;;;;;18.60;14.33;;;;;;;;;;5013651;28;20896;-63
2022/10/30 08:25:28;;;;;;;17.67;12.40;;;;;;;;;;5014498;28;20984;-62
2022/10/30 08:27:56;;;;;;;16.87;12.83;;;;;;;;;;5013979;28;20458;-62
2022/10/30 08:30:24;;;;;;;12.82;11.27;;;;;;;;;;5014000;28;20457;-62
2022/10/30 08:32:51;;;;;;;15.83;12.03;;;;;;;;;;5014125;28;20227;-62
2022/10/30 08:35:18;;;;;;;16.90;13.40;;;;;;;;;;5014088;28;20485;-62
2022/10/30 08:37:45;;;;;;;15.57;12.18;;;;;;;;;;5013974;28;20454;-62
2022/10/30 08:40:13;;;;;;;15.57;12.60;;;;;;;;;;5013872;28;20218;-63
2022/10/30 08:42:40;;;;;;;17.03;12.33;;;;;;;;;;5014056;28;20454;-63
2022/10/30 08:45:08;;;;;;;18.23;12.10;;;;;;;;;;5013602;28;20474;-62
2022/10/30 08:47:35;;;;;;;19.53;13.20;;;;;;;;;;5013979;28;20525;-63
2022/10/30 08:50:02;;;;;;;16.70;12.67;;;;;;;;;;5013797;28;20533;-62
2022/10/30 08:52:29;;;;;;;12.32;10.80;;;;;;;;;;5013477;28;20486;-63
2022/10/30 08:54:56;;;;;;;13.80;11.10;;;;;;;;;;5013611;28;20282;-62
2022/10/30 08:57:24;;;;;;;13.63;9.47;;;;;;;;;;5013818;28;20508;-63
2022/10/30 08:59:51;;;;;;;14.07;10.50;;;;;;;;;;5013713;28;20454;-61
2022/10/30 09:02:18;;;;;;;14.63;11.50;;;;;;;;;;5013454;28;20508;-63
2022/10/30 09:04:46;;;;;;;12.37;9.80;;;;;;;;;;5013475;28;20454;-63
2022/10/30 09:07:13;;;;;;;13.65;10.73;;;;;;;;;;5013580;28;20458;-62
2022/10/30 09:09:40;;;;;;;15.10;9.23;;;;;;;;;;5013415;28;20226;-61
2022/10/30 09:12:07;;;;;;;13.87;9.87;;;;;;;;;;5013451;28;20510;-63
2022/10/30 09:14:35;;;;;;;14.77;9.03;;;;;;;;;;5013579;28;20448;-62
2022/10/30 09:17:02;;;;;;;16.00;9.75;;;;;;;;;;5013439;28;20485;-62
2022/10/30 09:19:29;;;;;;;13.97;9.93;;;;;;;;;;5013159;28;20253;-62
2022/10/30 09:21:57;;;;;;;12.23;9.13;;;;;;;;;;5013197;28;20953;-63
2022/10/30 09:24:24;;;;;;;15.80;9.90;;;;;;;;;;5013382;28;20481;-62
2022/10/30 09:26:51;;;;;;;14.70;10.20;;;;;;;;;;5013264;28;20479;-63
2022/10/30 09:29:18;;;;;;;13.38;8.50;;;;;;;;;;5013367;28;20449;-63
2022/10/30 09:31:46;;;;;;;13.00;9.60;;;;;;;;;;5013682;28;20265;-63
2022/10/30 09:34:13;;;;;;;10.80;8.93;;;;;;;;;;5013061;28;20485;-62
2022/10/30 09:36:42;;;;;;;12.70;8.97;;;;;;;;;;5012352;28;20457;-62
2022/10/30 09:39:09;;;;;;;13.00;8.70;;;;;;;;;;5013373;28;20500;-62
2022/10/30 09:41:45;;;;;;;10.63;8.33;;;;;;;;;;5013012;28;21015;-63
2022/10/30 09:44:19;;;;;;;18.40;9.25;;;;;;;;;;5012857;28;20470;-62
2022/10/30 09:46:54;;;;;;;13.07;8.70;;;;;;;;;;5013032;28;20478;-62
2022/10/30 09:49:27;;;;;;;10.20;8.03;;;;;;;;;;5013178;28;20503;-62
2022/10/30 09:52:16;;;;;;;11.60;7.30;;;;;;;;;;5013010;28;20474;-62
2022/10/30 09:54:48;;;;;;;15.77;8.83;;;;;;;;;;5013060;28;20865;-62
2022/10/30 09:57:19;;;;;;;9.80;7.80;;;;;;;;;;5012946;28;20453;-64
2022/10/30 09:59:51;;;;;;;15.50;7.63;;;;;;;;;;5012797;28;20457;-62
2022/10/30 10:02:36;;;;;;;9.50;7.17;;;;;;;;;;5013134;28;20921;-61
2022/10/30 10:05:06;;;;;;;14.13;7.50;;;;;;;;;;5012933;28;20952;-63
2022/10/30 10:07:35;;;;;;;12.53;7.00;;;;;;;;;;5012914;28;20478;-62
2022/10/30 10:10:04;;;;;;;10.50;7.37;;;;;;;;;;5012700;28;20508;-62
2022/10/30 10:12:34;;;;;;;12.03;7.60;;;;;;;;;;5012888;28;20485;-62
2022/10/30 10:15:05;;;;;;;10.70;7.40;;;;;;;;;;5013391;28;20545;-63
2022/10/30 10:17:34;;;;;;;16.03;7.93;;;;;;;;;;5012705;28;20234;-63
2022/10/30 10:20:04;;;;;;;12.20;7.43;;;;;;;;;;5012774;28;20545;-62
2022/10/30 10:22:34;;;;;;;9.80;7.40;;;;;;;;;;5012675;28;20458;-61
2022/10/30 10:25:02;;;;;;;12.40;7.10;;;;;;;;;;5012820;28;20450;-63
2022/10/30 10:27:43;;;;;;;10.20;7.63;;;;;;;;;;5012931;28;20516;-63
2022/10/30 10:30:11;;;;;;;11.23;8.00;;;;;;;;;;5012668;28;21028;-62
2022/10/30 10:32:51;;;;;;;16.00;7.20;;;;;;;;;;5012510;28;20987;-63
2022/10/30 10:35:30;;;;;;;11.03;7.50;;;;;;;;;;5012777;28;20456;-62
2022/10/30 10:38:00;;;;;;;14.73;8.13;;;;;;;;;;5012680;28;20856;-62
2022/10/30 10:40:33;;;;;;;9.57;7.28;;;;;;;;;;5012486;28;20503;-62
2022/10/30 10:43:05;;;;;;;13.52;7.72;;;;;;;;;;5012509;28;20639;-62
2022/10/30 10:45:37;;;;;;;12.03;7.23;;;;;;;;;;5012265;28;20223;-62
2022/10/30 10:48:19;;;;;;;9.70;7.07;;;;;;;;;;5015912;28;20537;-63
2022/10/30 10:50:50;;;;;;;10.50;6.70;;;;;;;;;;5012915;28;20540;-62
2022/10/30 10:53:20;;;;;;;10.53;7.00;;;;;;;;;;5015851;28;20576;-62
2022/10/30 10:55:49;;;;;;;11.23;7.10;;;;;;;;;;5015899;28;20454;-62
2022/10/30 10:58:22;;;;;;;11.17;6.90;;;;;;;;;;5016181;28;20649;-62
2022/10/30 11:00:49;;;;;;;12.00;7.47;;;;;;;;;;5015833;28;20783;-62
2022/10/30 11:03:21;;;;;;;15.87;8.50;;;;;;;;;;5015733;28;20857;-63
2022/10/30 11:05:51;;;;;;;12.80;7.43;;;;;;;;;;5015768;28;20446;-62
2022/10/30 11:08:20;;;;;;;16.40;7.83;;;;;;;;;;5015544;28;20790;-62
2022/10/30 11:10:49;;;;;;;11.87;7.03;;;;;;;;;;5015651;28;20521;-62
2022/10/30 11:13:16;;;;;;;9.87;6.00;;;;;;;;;;5015505;28;20490;-63
2022/10/30 11:15:54;;;;;;;8.17;6.70;;;;;;;;;;5015741;28;20477;-62
2022/10/30 11:18:21;;;;;;;8.35;5.85;;;;;;;;;;5015413;28;20864;-63
2022/10/30 11:20:56;;;;;;;7.07;6.25;;;;;;;;;;5015243;28;20194;-62
2022/10/30 11:23:38;;;;;;;11.23;7.20;;;;;;;;;;5015219;28;20194;-62
2022/10/30 11:26:05;;;;;;;12.37;6.17;;;;;;;;;;5015453;28;20446;-62
2022/10/30 11:28:36;;;;;;;14.00;6.67;;;;;;;;;;5015294;28;20493;-62
2022/10/30 11:31:19;;;;;;;15.07;6.70;;;;;;;;;;5015067;28;20478;-62
2022/10/30 11:33:46;;;;;;;12.97;6.40;;;;;;;;;;5015202;28;20218;-62
2022/10/30 11:36:16;;;;;;;7.10;5.70;;;;;;;;;;5015159;28;20458;-63
2022/10/30 11:38:43;;;;;;;10.30;5.43;;;;;;;;;;5014948;28;20454;-62
2022/10/30 11:41:11;;;;;;;10.33;5.80;;;;;;;;;;5014966;28;20818;-63
2022/10/30 11:43:39;;;;;;;9.30;6.57;;;;;;;;;;5014568;28;20528;-63
2022/10/30 11:46:08;;;;;;;10.53;5.40;;;;;;;;;;5015049;28;20193;-63
2022/10/30 11:48:37;;;;;;;12.80;6.20;;;;;;;;;;5014796;28;20451;-62
2022/10/30 11:51:05;;;;;;;7.77;5.73;;;;;;;;;;5014768;28;20533;-62
2022/10/30 11:53:37;;;;;;;6.63;5.50;;;;;;;;;;5014697;28;20900;-62
2022/10/30 11:56:11;;;;;;;7.23;5.60;;;;;;;;;;5014577;28;20191;-62
2022/10/30 11:58:39;;;;;;;11.30;6.80;;;;;;;;;;5013576;28;20453;-62
2022/10/30 12:01:07;;;;;;;12.13;5.90;;;;;;;;;;5014749;28;20450;-62
2022/10/30 12:03:36;;;;;;;10.30;6.00;;;;;;;;;;5014548;28;20486;-63
2022/10/30 12:06:09;;;;;;;9.43;5.43;;;;;;;;;;5014563;28;20463;-63
2022/10/30 12:08:38;;;;;;;7.40;5.60;;;;;;;;;;5014370;28;20481;-62
2022/10/30 12:11:06;;;;;;;7.87;5.80;;;;;;;;;;5014583;28;20505;-62
2022/10/30 12:13:42;;;;;;;10.43;5.70;;;;;;;;;;5014470;28;20482;-62
2022/10/30 12:16:16;;;;;;;11.57;7.23;;;;;;;;;;5014403;28;20457;-62
2022/10/30 12:18:53;;;;;;;12.70;6.10;;;;;;;;;;5014394;28;20577;-62
2022/10/30 12:21:20;;;;;;;11.77;6.00;;;;;;;;;;5014166;28;20512;-63
2022/10/30 12:23:53;;;;;;;7.83;5.30;;;;;;;;;;5014390;28;20446;-62
2022/10/30 12:26:20;;;;;;;8.90;5.03;;;;;;;;;;5013951;28;20455;-62
2022/10/30 12:28:51;;;;;;;13.97;5.17;;;;;;;;;;5014177;28;20473;-63
2022/10/30 12:31:19;;;;;;;14.60;6.00;;;;;;;;;;5014098;28;20454;-62
2022/10/30 12:33:49;;;;;;;10.40;5.30;;;;;;;;;;5013855;28;20511;-63
2022/10/30 12:36:18;;;;;;;10.33;5.80;;;;;;;;;;5014283;28;20857;-62
2022/10/30 12:38:47;;;;;;;9.70;5.60;;;;;;;;;;5014218;28;20484;-63
2022/10/30 12:41:19;;;;;;;10.57;6.07;;;;;;;;;;5013997;28;20922;-63
2022/10/30 12:43:48;;;;;;;7.03;4.97;;;;;;;;;;5013701;28;20838;-61
2022/10/30 12:46:20;;;;;;;11.87;6.60;;;;;;;;;;5013801;28;20454;-62
2022/10/30 12:48:50;;;;;;;16.33;5.30;;;;;;;;;;5013904;28;20945;-62
2022/10/30 12:51:21;;;;;;;18.15;6.32;;;;;;;;;;5013756;28;20481;-62
2022/10/30 12:53:51;;;;;;;12.67;5.87;;;;;;;;;;5013791;28;20281;-62
2022/10/30 12:56:21;;;;;;;12.03;5.63;;;;;;;;;;5013664;28;20453;-63
2022/10/30 12:58:52;;;;;;;10.23;6.10;;;;;;;;;;5013535;28;20458;-62
2022/10/30 13:01:25;;;;;;;11.10;4.97;;;;;;;;;;5013581;28;21015;-62
2022/10/30 13:03:54;;;;;;;13.57;5.30;;;;;;;;;;5013704;28;20533;-62
2022/10/30 13:06:24;;;;;;;12.73;5.90;;;;;;;;;;5013569;28;20488;-62
2022/10/30 13:08:55;;;;;;;8.03;6.00;;;;;;;;;;5013382;28;20456;-62
2022/10/30 13:11:28;;;;;;;9.33;5.80;;;;;;;;;;5013537;28;20896;-62
2022/10/30 13:13:55;;;;;;;9.73;5.80;;;;;;;;;;5013569;28;20576;-62
2022/10/30 13:16:24;;;;;;;9.00;5.83;;;;;;;;;;5013371;28;20450;-62
2022/10/30 13:18:53;;;;;;;10.93;6.10;;;;;;;;;;5013493;28;20477;-62
2022/10/30 13:21:23;;;;;;;12.80;5.37;;;;;;;;;;5013231;28;20490;-62
2022/10/30 13:23:52;;;;;;;9.97;5.33;;;;;;;;;;5013197;28;20470;-62
2022/10/30 13:26:29;;;;;;;16.63;6.27;;;;;;;;;;5013316;28;20446;-61
2022/10/30 13:29:02;;;;;;;9.43;4.90;;;;;;;;;;5013315;28;20460;-62
2022/10/30 13:31:33;;;;;;;6.32;5.00;;;;;;;;;;5013284;28;20873;-62
2022/10/30 13:34:03;;;;;;;7.63;5.20;;;;;;;;;;5012888;28;20298;-63
2022/10/30 13:36:34;;;;;;;12.43;6.23;;;;;;;;;;5013079;28;20505;-63
2022/10/30 13:39:04;;;;;;;8.93;5.20;;;;;;;;;;5013215;28;20452;-62
2022/10/30 13:41:36;;;;;;;6.50;5.70;;;;;;;;;;5012871;28;20481;-63
2022/10/30 13:44:07;;;;;;;13.13;6.37;;;;;;;;;;5012705;28;20473;-62
2022/10/30 13:46:46;;;;;;;9.77;6.03;;;;;;;;;;5013005;28;20541;-62
2022/10/30 13:49:21;;;;;;;5.37;4.87;;;;;;;;;;5013322;28;20809;-62
2022/10/30 13:51:51;;;;;;;7.33;6.03;;;;;;;;;;5013073;28;20497;-62
2022/10/30 13:54:20;;;;;;;8.43;5.23;;;;;;;;;;5013110;28;20474;-62
2022/10/30 13:56:49;;;;;;;7.13;4.80;;;;;;;;;;5012812;28;20457;-62
2022/10/30 13:59:25;;;;;;;7.53;4.70;;;;;;;;;;5012788;28;20457;-62
2022/10/30 14:01:57;;;;;;;5.53;4.90;;;;;;;;;;5012861;28;20940;-61
2022/10/30 14:04:29;;;;;;;7.90;4.87;;;;;;;;;;5013156;28;20555;-62
2022/10/30 14:06:59;;;;;;;9.73;5.70;;;;;;;;;;5012882;28;20819;-61
2022/10/30 14:09:30;;;;;;;13.27;5.90;;;;;;;;;;5013008;28;20834;-61
2022/10/30 14:12:01;;;;;;;14.83;5.37;;;;;;;;;;5013064;28;20952;-61
2022/10/30 14:14:29;;;;;;;6.90;4.90;;;;;;;;;;5012873;28;21046;-62
2022/10/30 14:17:13;;;;;;;14.93;6.70;;;;;;;;;;5012810;28;20458;-62
2022/10/30 14:19:59;;;;;;;9.03;5.27;;;;;;;;;;5012716;28;20766;-62
2022/10/30 14:22:26;;;;;;;11.97;6.20;;;;;;;;;;5015256;28;20508;-62
2022/10/30 14:24:53;;;;;;;8.87;5.37;;;;;;;;;;5016436;28;20457;-61
2022/10/30 14:27:23;;;;;;;8.77;5.57;;;;;;;;;;5016544;28;20961;-63
2022/10/30 14:29:50;;;;;;;8.37;5.43;;;;;;;;;;5016653;28;20450;-62
2022/10/30 14:32:35;;;;;;;7.00;5.23;;;;;;;;;;5016191;28;20817;-63
2022/10/30 14:35:03;;;;;;;13.40;5.57;;;;;;;;;;5016384;28;20871;-62